Lumberton, North Carolina
Current Conditions -  °F | °C
As of 11:54 AM on Friday 28 Nov 2014 (Local Time) from KLBT Reporting Station
Clear Clear  
Wind Chill:   Ceiling: Unl
Heat Index:   Visibility: 10mi
Dew Point: -6°   Wind: 8mph
Humidity: 39%   Direction: 340°NNW
Pressure: 30.34"   Gusts: 17mph
Location:  34.62°N, 79.01°W
Report Text: KLBT 281654Z AUTO 34007G15KT 10SM CLR 07/M06 A3034 RMK AO2 SLP275 T00721061
Loading
Personal Weather Stations






























Interactive Weather Map New forecast layout! Learn more

10-Day Weather Forecast

Advertisements
Track Severe Weather on mobile